EAGO2: Mountain Fork Riv, Eagletown,

                                SHEF ID:       EAGO2     Mountain Fork near Eagletown, OK
STATION TYPE: Stream Gauge
Regulating: Stage = 9.00, Flow = 9433

PRECIP STAGE RIV-FLOW WTR-TEMP BAT-LOAD
in ft cfs F volt
Ccp-Rev Ccp-Rev Ccp-Rev Ccp-Rev Ccp-Rev
(America/Chicago)
04/29 00:00 0.00 4.77 3354 64.54 12.65
04/29 01:00 0.00 4.61 3141 64.40 12.65
04/29 02:00 0.00 4.41 2887 64.17 12.57
04/29 03:00 0.00 4.19 2622 63.93 12.57
04/29 04:00 0.00 4.00 2403 63.70 12.57
04/29 05:00 0.00 3.78 2144 63.50 12.57
04/29 06:00 0.00 3.61 1956 63.32 12.57
04/29 07:00 0.00 3.42 1749 63.18 12.49
04/29 08:00 0.00 3.24 1566 63.14 12.65
04/29 09:00 0.00 3.08 1409 63.19 13.13
04/29 10:00 0.00 2.93 1268 63.30 13.29
04/29 11:00 0.00 2.80 1154 63.59 13.60
04/29 12:00 0.00 2.67 1047 63.82 13.60
04/29 13:00 0.00 2.55 950 64.09 13.60
04/29 14:00 0.00 2.44 865 64.33 13.44
04/29 15:00 0.00 2.35 800 64.58 13.44
04/29 16:00 0.00 2.26 738 64.87 13.21
04/29 17:00 0.00 2.17 680 64.94 13.29
04/29 18:00 0.02 2.10 638 64.99 13.05
04/29 19:00 0.00 2.03 599 65.08 13.29
04/29 20:00 0.00 1.97 567 65.05 12.89
04/29 21:00 0.00 2.26 738 64.94 12.81
04/29 22:00 0.00 2.91 1250 64.78 12.81
04/29 23:00 0.00 3.19 1517 64.71 12.81
Data processed at Thu 30Apr2026 04:39 GMT

NOTICE: If you are parsing this page

Please convert to using our Data API. Starting early 2026 we will be migrating to: https://water.usace.army.mil with modern pages rendered in JavaScript. When this migration completes you will no longer be able to scrape this page! CWMSDataAPI (CDA)

Timeseries IDs (TSIDs)

TSIDs used from left to right in the data table
EAGL.Precip-Inc.Total.1Hour.1Hour.Ccp-Rev
EAGL.Stage.Inst.1Hour.0.Ccp-Rev
EAGL.Flow.Inst.1Hour.0.Ccp-Rev
EAGL.Temp-Water.Inst.1Hour.0.Ccp-Rev
EAGL.Volt-Battery Load.Inst.1Hour.0.Ccp-Rev

                            

All information presented herein is the property of the government of the United States of America and may be revised or deleted at any time without prior notice. Dissemination of this information without the expressed written consent of the Public Affairs Office, Tulsa District U.S. Army Corps of Engineers is strictly prohibited. These data are gathered electronically and, as presented, have NOT undergone any form of quality control. These data are NOT guaranteed to be valid or correct.